sensor_id;sensor_type;location;lat;lon;timestamp;P1;durP1;ratioP1;P2;durP2;ratioP2
79130;SDS011;72396;45.194;9.142;2024-01-30T00:01:11;34.33;;;11.27;;
79130;SDS011;72396;45.194;9.142;2024-01-30T00:03:37;27.77;;;11.82;;
79130;SDS011;72396;45.194;9.142;2024-01-30T00:06:05;32.38;;;12.95;;
79130;SDS011;72396;45.194;9.142;2024-01-30T00:08:31;33.90;;;12.55;;
79130;SDS011;72396;45.194;9.142;2024-01-30T00:10:56;32.08;;;11.10;;
79130;SDS011;72396;45.194;9.142;2024-01-30T00:13:21;34.42;;;11.68;;
79130;SDS011;72396;45.194;9.142;2024-01-30T00:15:47;38.53;;;13.18;;
79130;SDS011;72396;45.194;9.142;2024-01-30T00:18:13;35.03;;;11.77;;
79130;SDS011;72396;45.194;9.142;2024-01-30T00:20:39;33.15;;;12.38;;
79130;SDS011;72396;45.194;9.142;2024-01-30T00:23:04;32.95;;;12.02;;
79130;SDS011;72396;45.194;9.142;2024-01-30T00:25:29;31.92;;;11.43;;
79130;SDS011;72396;45.194;9.142;2024-01-30T00:27:55;30.85;;;11.60;;
79130;SDS011;72396;45.194;9.142;2024-01-30T00:30:21;31.05;;;11.52;;
79130;SDS011;72396;45.194;9.142;2024-01-30T00:32:46;31.17;;;11.85;;
79130;SDS011;72396;45.194;9.142;2024-01-30T00:35:12;30.25;;;11.80;;
79130;SDS011;72396;45.194;9.142;2024-01-30T00:37:37;29.30;;;11.88;;
79130;SDS011;72396;45.194;9.142;2024-01-30T00:40:03;32.70;;;11.82;;
79130;SDS011;72396;45.194;9.142;2024-01-30T00:42:28;29.25;;;11.82;;
79130;SDS011;72396;45.194;9.142;2024-01-30T00:44:54;27.17;;;11.93;;
79130;SDS011;72396;45.194;9.142;2024-01-30T00:47:19;33.25;;;12.05;;
79130;SDS011;72396;45.194;9.142;2024-01-30T00:49:45;27.10;;;11.40;;
79130;SDS011;72396;45.194;9.142;2024-01-30T00:52:10;32.92;;;12.48;;
79130;SDS011;72396;45.194;9.142;2024-01-30T00:54:36;26.40;;;11.75;;
79130;SDS011;72396;45.194;9.142;2024-01-30T00:57:02;29.25;;;13.35;;
79130;SDS011;72396;45.194;9.142;2024-01-30T00:59:27;30.58;;;12.45;;
79130;SDS011;72396;45.194;9.142;2024-01-30T01:01:53;30.45;;;12.43;;
79130;SDS011;72396;45.194;9.142;2024-01-30T01:04:18;29.60;;;11.77;;
79130;SDS011;72396;45.194;9.142;2024-01-30T01:06:43;33.30;;;13.13;;
79130;SDS011;72396;45.194;9.142;2024-01-30T01:09:10;35.60;;;12.43;;
79130;SDS011;72396;45.194;9.142;2024-01-30T01:11:36;30.27;;;12.32;;
79130;SDS011;72396;45.194;9.142;2024-01-30T01:14:03;35.88;;;14.50;;
79130;SDS011;72396;45.194;9.142;2024-01-30T01:16:28;28.65;;;12.27;;
79130;SDS011;72396;45.194;9.142;2024-01-30T01:18:54;27.33;;;11.88;;
79130;SDS011;72396;45.194;9.142;2024-01-30T01:21:19;30.15;;;13.10;;
79130;SDS011;72396;45.194;9.142;2024-01-30T01:23:44;32.50;;;12.15;;
79130;SDS011;72396;45.194;9.142;2024-01-30T01:26:10;36.35;;;12.40;;
79130;SDS011;72396;45.194;9.142;2024-01-30T01:28:35;27.75;;;12.70;;
79130;SDS011;72396;45.194;9.142;2024-01-30T01:31:01;32.63;;;12.15;;
79130;SDS011;72396;45.194;9.142;2024-01-30T01:33:30;29.55;;;12.45;;
79130;SDS011;72396;45.194;9.142;2024-01-30T01:35:59;29.90;;;11.98;;
79130;SDS011;72396;45.194;9.142;2024-01-30T01:38:27;28.42;;;12.98;;
79130;SDS011;72396;45.194;9.142;2024-01-30T01:40:53;31.48;;;12.00;;
79130;SDS011;72396;45.194;9.142;2024-01-30T01:43:18;32.55;;;12.52;;
79130;SDS011;72396;45.194;9.142;2024-01-30T01:45:44;26.80;;;11.88;;
79130;SDS011;72396;45.194;9.142;2024-01-30T01:48:10;28.77;;;12.30;;
79130;SDS011;72396;45.194;9.142;2024-01-30T01:50:37;36.47;;;12.85;;
79130;SDS011;72396;45.194;9.142;2024-01-30T01:53:03;27.63;;;12.35;;
79130;SDS011;72396;45.194;9.142;2024-01-30T01:55:32;36.53;;;13.02;;
79130;SDS011;72396;45.194;9.142;2024-01-30T01:57:58;29.20;;;11.75;;
79130;SDS011;72396;45.194;9.142;2024-01-30T02:00:23;31.88;;;13.25;;
79130;SDS011;72396;45.194;9.142;2024-01-30T02:02:49;30.25;;;12.20;;
79130;SDS011;72396;45.194;9.142;2024-01-30T02:05:16;35.75;;;13.10;;
79130;SDS011;72396;45.194;9.142;2024-01-30T02:07:42;30.08;;;12.23;;
79130;SDS011;72396;45.194;9.142;2024-01-30T02:10:08;29.58;;;11.95;;
79130;SDS011;72396;45.194;9.142;2024-01-30T02:12:37;29.75;;;11.50;;
79130;SDS011;72396;45.194;9.142;2024-01-30T02:15:02;27.23;;;10.85;;
79130;SDS011;72396;45.194;9.142;2024-01-30T02:17:29;34.88;;;12.98;;
79130;SDS011;72396;45.194;9.142;2024-01-30T02:19:55;31.77;;;12.02;;
79130;SDS011;72396;45.194;9.142;2024-01-30T02:22:20;26.35;;;11.95;;
79130;SDS011;72396;45.194;9.142;2024-01-30T02:24:47;26.67;;;11.07;;
79130;SDS011;72396;45.194;9.142;2024-01-30T02:27:12;25.08;;;11.20;;
79130;SDS011;72396;45.194;9.142;2024-01-30T02:29:37;25.95;;;11.18;;
79130;SDS011;72396;45.194;9.142;2024-01-30T02:32:03;26.10;;;11.07;;
79130;SDS011;72396;45.194;9.142;2024-01-30T02:34:28;31.77;;;11.57;;
79130;SDS011;72396;45.194;9.142;2024-01-30T02:36:54;30.48;;;11.60;;
79130;SDS011;72396;45.194;9.142;2024-01-30T02:39:19;29.20;;;11.98;;
79130;SDS011;72396;45.194;9.142;2024-01-30T02:41:44;24.58;;;11.15;;
79130;SDS011;72396;45.194;9.142;2024-01-30T02:44:10;30.27;;;11.75;;
79130;SDS011;72396;45.194;9.142;2024-01-30T02:46:35;26.83;;;11.30;;
79130;SDS011;72396;45.194;9.142;2024-01-30T02:49:00;29.83;;;11.23;;
79130;SDS011;72396;45.194;9.142;2024-01-30T02:51:26;27.27;;;11.48;;
79130;SDS011;72396;45.194;9.142;2024-01-30T02:53:52;25.75;;;10.73;;
79130;SDS011;72396;45.194;9.142;2024-01-30T02:56:17;26.92;;;10.60;;
79130;SDS011;72396;45.194;9.142;2024-01-30T02:58:43;28.65;;;11.25;;
79130;SDS011;72396;45.194;9.142;2024-01-30T03:01:08;26.27;;;11.27;;
79130;SDS011;72396;45.194;9.142;2024-01-30T03:03:33;29.20;;;10.93;;
79130;SDS011;72396;45.194;9.142;2024-01-30T03:06:01;26.23;;;12.02;;
79130;SDS011;72396;45.194;9.142;2024-01-30T03:08:27;25.90;;;10.63;;
79130;SDS011;72396;45.194;9.142;2024-01-30T03:10:52;28.83;;;11.40;;
79130;SDS011;72396;45.194;9.142;2024-01-30T03:13:18;26.20;;;11.20;;
79130;SDS011;72396;45.194;9.142;2024-01-30T03:15:43;25.88;;;9.73;;
79130;SDS011;72396;45.194;9.142;2024-01-30T03:18:08;24.92;;;9.80;;
79130;SDS011;72396;45.194;9.142;2024-01-30T03:20:34;26.98;;;11.43;;
79130;SDS011;72396;45.194;9.142;2024-01-30T03:22:59;30.50;;;10.82;;
79130;SDS011;72396;45.194;9.142;2024-01-30T03:25:25;21.25;;;9.02;;
79130;SDS011;72396;45.194;9.142;2024-01-30T03:27:51;20.35;;;8.98;;
79130;SDS011;72396;45.194;9.142;2024-01-30T03:30:16;25.90;;;10.38;;
79130;SDS011;72396;45.194;9.142;2024-01-30T03:32:42;24.73;;;9.63;;
79130;SDS011;72396;45.194;9.142;2024-01-30T03:35:08;23.92;;;9.43;;
79130;SDS011;72396;45.194;9.142;2024-01-30T03:37:33;21.73;;;10.30;;
79130;SDS011;72396;45.194;9.142;2024-01-30T03:39:59;21.25;;;8.63;;
79130;SDS011;72396;45.194;9.142;2024-01-30T03:42:24;25.20;;;9.00;;
79130;SDS011;72396;45.194;9.142;2024-01-30T03:44:49;23.08;;;8.60;;
79130;SDS011;72396;45.194;9.142;2024-01-30T03:47:18;23.88;;;11.13;;
79130;SDS011;72396;45.194;9.142;2024-01-30T03:49:44;25.33;;;10.25;;
79130;SDS011;72396;45.194;9.142;2024-01-30T03:52:09;29.92;;;10.75;;
79130;SDS011;72396;45.194;9.142;2024-01-30T03:54:35;28.00;;;10.15;;
79130;SDS011;72396;45.194;9.142;2024-01-30T03:57:00;26.13;;;10.18;;
79130;SDS011;72396;45.194;9.142;2024-01-30T03:59:25;23.67;;;9.93;;
79130;SDS011;72396;45.194;9.142;2024-01-30T04:01:51;24.23;;;9.77;;
79130;SDS011;72396;45.194;9.142;2024-01-30T04:04:17;24.88;;;9.15;;
79130;SDS011;72396;45.194;9.142;2024-01-30T04:06:43;22.70;;;9.90;;
79130;SDS011;72396;45.194;9.142;2024-01-30T04:09:09;24.17;;;9.35;;
79130;SDS011;72396;45.194;9.142;2024-01-30T04:11:34;21.63;;;9.85;;
79130;SDS011;72396;45.194;9.142;2024-01-30T04:14:00;24.73;;;9.52;;
79130;SDS011;72396;45.194;9.142;2024-01-30T04:16:25;22.00;;;10.18;;
79130;SDS011;72396;45.194;9.142;2024-01-30T04:18:51;25.38;;;9.13;;
79130;SDS011;72396;45.194;9.142;2024-01-30T04:21:16;24.35;;;9.43;;
79130;SDS011;72396;45.194;9.142;2024-01-30T04:23:42;21.27;;;10.63;;
79130;SDS011;72396;45.194;9.142;2024-01-30T04:26:07;22.17;;;9.68;;
79130;SDS011;72396;45.194;9.142;2024-01-30T04:28:32;21.65;;;9.23;;
79130;SDS011;72396;45.194;9.142;2024-01-30T04:30:58;21.05;;;9.55;;
79130;SDS011;72396;45.194;9.142;2024-01-30T04:33:23;21.00;;;9.00;;
79130;SDS011;72396;45.194;9.142;2024-01-30T04:35:49;22.42;;;10.25;;
79130;SDS011;72396;45.194;9.142;2024-01-30T04:38:14;18.02;;;8.27;;
79130;SDS011;72396;45.194;9.142;2024-01-30T04:40:40;20.45;;;8.38;;
79130;SDS011;72396;45.194;9.142;2024-01-30T04:43:05;17.13;;;8.15;;
79130;SDS011;72396;45.194;9.142;2024-01-30T04:45:31;23.77;;;9.10;;
79130;SDS011;72396;45.194;9.142;2024-01-30T04:47:56;20.10;;;8.43;;
79130;SDS011;72396;45.194;9.142;2024-01-30T04:50:22;19.08;;;8.20;;
79130;SDS011;72396;45.194;9.142;2024-01-30T04:52:48;18.73;;;8.63;;
79130;SDS011;72396;45.194;9.142;2024-01-30T04:55:13;20.42;;;8.90;;
79130;SDS011;72396;45.194;9.142;2024-01-30T04:57:39;19.40;;;9.02;;
79130;SDS011;72396;45.194;9.142;2024-01-30T05:00:04;21.02;;;9.60;;
79130;SDS011;72396;45.194;9.142;2024-01-30T05:02:30;21.23;;;8.88;;
79130;SDS011;72396;45.194;9.142;2024-01-30T05:04:56;23.30;;;9.65;;
79130;SDS011;72396;45.194;9.142;2024-01-30T05:07:21;19.13;;;8.35;;
79130;SDS011;72396;45.194;9.142;2024-01-30T05:09:47;21.25;;;9.63;;
79130;SDS011;72396;45.194;9.142;2024-01-30T05:12:12;22.92;;;9.10;;
79130;SDS011;72396;45.194;9.142;2024-01-30T05:14:38;21.17;;;9.98;;
79130;SDS011;72396;45.194;9.142;2024-01-30T05:17:03;20.42;;;8.40;;
79130;SDS011;72396;45.194;9.142;2024-01-30T05:19:29;23.60;;;9.77;;
79130;SDS011;72396;45.194;9.142;2024-01-30T05:21:54;22.88;;;9.30;;
79130;SDS011;72396;45.194;9.142;2024-01-30T05:24:19;19.70;;;8.32;;
79130;SDS011;72396;45.194;9.142;2024-01-30T05:26:45;20.98;;;9.60;;
79130;SDS011;72396;45.194;9.142;2024-01-30T05:29:10;18.50;;;9.10;;
79130;SDS011;72396;45.194;9.142;2024-01-30T05:31:35;23.35;;;9.88;;
79130;SDS011;72396;45.194;9.142;2024-01-30T05:34:01;18.63;;;8.63;;
79130;SDS011;72396;45.194;9.142;2024-01-30T05:36:26;19.60;;;9.25;;
79130;SDS011;72396;45.194;9.142;2024-01-30T05:38:52;23.23;;;9.07;;
79130;SDS011;72396;45.194;9.142;2024-01-30T05:41:17;21.45;;;9.00;;
79130;SDS011;72396;45.194;9.142;2024-01-30T05:43:43;25.55;;;9.50;;
79130;SDS011;72396;45.194;9.142;2024-01-30T05:46:08;24.02;;;9.32;;
79130;SDS011;72396;45.194;9.142;2024-01-30T05:48:34;18.30;;;7.93;;
79130;SDS011;72396;45.194;9.142;2024-01-30T05:51:00;23.05;;;8.52;;
79130;SDS011;72396;45.194;9.142;2024-01-30T05:53:26;19.08;;;7.43;;
79130;SDS011;72396;45.194;9.142;2024-01-30T05:55:51;20.15;;;7.72;;
79130;SDS011;72396;45.194;9.142;2024-01-30T05:58:17;18.45;;;8.23;;
79130;SDS011;72396;45.194;9.142;2024-01-30T06:00:42;17.85;;;6.78;;
79130;SDS011;72396;45.194;9.142;2024-01-30T06:03:07;19.63;;;8.32;;
79130;SDS011;72396;45.194;9.142;2024-01-30T06:05:33;20.30;;;8.35;;
79130;SDS011;72396;45.194;9.142;2024-01-30T06:07:58;19.90;;;8.75;;
79130;SDS011;72396;45.194;9.142;2024-01-30T06:10:23;18.25;;;8.85;;
79130;SDS011;72396;45.194;9.142;2024-01-30T06:12:49;20.63;;;8.95;;
79130;SDS011;72396;45.194;9.142;2024-01-30T06:15:14;20.30;;;8.30;;
79130;SDS011;72396;45.194;9.142;2024-01-30T06:17:39;24.02;;;9.48;;
79130;SDS011;72396;45.194;9.142;2024-01-30T06:20:05;24.85;;;8.98;;
79130;SDS011;72396;45.194;9.142;2024-01-30T06:22:31;22.83;;;8.85;;
79130;SDS011;72396;45.194;9.142;2024-01-30T06:24:56;25.95;;;9.13;;
79130;SDS011;72396;45.194;9.142;2024-01-30T06:27:22;17.95;;;7.82;;
79130;SDS011;72396;45.194;9.142;2024-01-30T06:29:47;21.50;;;8.52;;
79130;SDS011;72396;45.194;9.142;2024-01-30T06:32:12;23.13;;;9.20;;
79130;SDS011;72396;45.194;9.142;2024-01-30T06:34:38;23.67;;;8.95;;
79130;SDS011;72396;45.194;9.142;2024-01-30T06:37:05;21.65;;;8.77;;
79130;SDS011;72396;45.194;9.142;2024-01-30T06:39:30;21.88;;;8.75;;
79130;SDS011;72396;45.194;9.142;2024-01-30T06:41:55;22.58;;;9.88;;
79130;SDS011;72396;45.194;9.142;2024-01-30T06:44:21;23.63;;;9.77;;
79130;SDS011;72396;45.194;9.142;2024-01-30T06:46:46;20.75;;;8.82;;
79130;SDS011;72396;45.194;9.142;2024-01-30T06:49:12;21.63;;;8.13;;
79130;SDS011;72396;45.194;9.142;2024-01-30T06:51:37;23.38;;;8.80;;
79130;SDS011;72396;45.194;9.142;2024-01-30T06:54:02;22.48;;;9.30;;
79130;SDS011;72396;45.194;9.142;2024-01-30T06:56:28;23.02;;;8.93;;
79130;SDS011;72396;45.194;9.142;2024-01-30T06:58:53;22.38;;;8.23;;
79130;SDS011;72396;45.194;9.142;2024-01-30T07:01:19;21.65;;;8.15;;
79130;SDS011;72396;45.194;9.142;2024-01-30T07:03:44;23.73;;;9.70;;
79130;SDS011;72396;45.194;9.142;2024-01-30T07:06:10;24.95;;;9.57;;
79130;SDS011;72396;45.194;9.142;2024-01-30T07:08:38;25.25;;;10.00;;
79130;SDS011;72396;45.194;9.142;2024-01-30T07:11:04;23.73;;;9.73;;
79130;SDS011;72396;45.194;9.142;2024-01-30T07:13:31;22.45;;;9.45;;
79130;SDS011;72396;45.194;9.142;2024-01-30T07:15:56;22.77;;;9.50;;
79130;SDS011;72396;45.194;9.142;2024-01-30T07:18:21;22.30;;;9.13;;
79130;SDS011;72396;45.194;9.142;2024-01-30T07:20:47;23.65;;;8.60;;
79130;SDS011;72396;45.194;9.142;2024-01-30T07:23:13;22.70;;;9.07;;
79130;SDS011;72396;45.194;9.142;2024-01-30T07:25:41;22.85;;;9.25;;
79130;SDS011;72396;45.194;9.142;2024-01-30T07:28:06;26.90;;;10.23;;
79130;SDS011;72396;45.194;9.142;2024-01-30T07:30:34;20.75;;;9.95;;
79130;SDS011;72396;45.194;9.142;2024-01-30T07:32:59;23.90;;;9.05;;
79130;SDS011;72396;45.194;9.142;2024-01-30T07:35:25;21.55;;;8.75;;
79130;SDS011;72396;45.194;9.142;2024-01-30T07:37:50;22.23;;;8.75;;
79130;SDS011;72396;45.194;9.142;2024-01-30T07:40:16;24.00;;;9.02;;
79130;SDS011;72396;45.194;9.142;2024-01-30T07:42:42;23.52;;;9.98;;
79130;SDS011;72396;45.194;9.142;2024-01-30T07:45:08;20.30;;;8.93;;
79130;SDS011;72396;45.194;9.142;2024-01-30T07:47:33;20.38;;;8.55;;
79130;SDS011;72396;45.194;9.142;2024-01-30T07:49:59;24.55;;;10.43;;
79130;SDS011;72396;45.194;9.142;2024-01-30T07:52:24;23.83;;;9.50;;
79130;SDS011;72396;45.194;9.142;2024-01-30T07:54:50;22.92;;;9.65;;
79130;SDS011;72396;45.194;9.142;2024-01-30T07:57:16;23.83;;;10.23;;
79130;SDS011;72396;45.194;9.142;2024-01-30T07:59:42;19.60;;;9.07;;
79130;SDS011;72396;45.194;9.142;2024-01-30T08:02:11;19.73;;;9.32;;
79130;SDS011;72396;45.194;9.142;2024-01-30T08:04:37;21.83;;;8.93;;
79130;SDS011;72396;45.194;9.142;2024-01-30T08:07:03;20.05;;;9.50;;
79130;SDS011;72396;45.194;9.142;2024-01-30T08:09:28;20.08;;;8.05;;
79130;SDS011;72396;45.194;9.142;2024-01-30T08:11:54;22.02;;;9.93;;
79130;SDS011;72396;45.194;9.142;2024-01-30T08:14:19;19.63;;;8.43;;
79130;SDS011;72396;45.194;9.142;2024-01-30T08:16:44;24.40;;;8.85;;
79130;SDS011;72396;45.194;9.142;2024-01-30T08:19:10;26.38;;;10.73;;
79130;SDS011;72396;45.194;9.142;2024-01-30T08:21:35;22.60;;;9.05;;
79130;SDS011;72396;45.194;9.142;2024-01-30T08:24:04;18.98;;;8.98;;
79130;SDS011;72396;45.194;9.142;2024-01-30T08:26:34;21.67;;;8.77;;
79130;SDS011;72396;45.194;9.142;2024-01-30T08:29:00;21.65;;;8.40;;
79130;SDS011;72396;45.194;9.142;2024-01-30T08:31:26;23.92;;;9.80;;
79130;SDS011;72396;45.194;9.142;2024-01-30T08:33:51;21.08;;;9.45;;
79130;SDS011;72396;45.194;9.142;2024-01-30T08:36:17;24.83;;;9.48;;
79130;SDS011;72396;45.194;9.142;2024-01-30T08:38:43;24.90;;;10.05;;
79130;SDS011;72396;45.194;9.142;2024-01-30T08:41:08;26.40;;;10.70;;
79130;SDS011;72396;45.194;9.142;2024-01-30T08:43:34;21.60;;;8.73;;
79130;SDS011;72396;45.194;9.142;2024-01-30T08:45:59;24.63;;;10.40;;
79130;SDS011;72396;45.194;9.142;2024-01-30T08:48:25;25.25;;;11.40;;
79130;SDS011;72396;45.194;9.142;2024-01-30T08:50:51;21.00;;;10.07;;
79130;SDS011;72396;45.194;9.142;2024-01-30T08:53:16;28.17;;;11.65;;
79130;SDS011;72396;45.194;9.142;2024-01-30T08:55:41;26.15;;;11.13;;
79130;SDS011;72396;45.194;9.142;2024-01-30T08:58:07;21.75;;;10.10;;
79130;SDS011;72396;45.194;9.142;2024-01-30T09:00:32;22.80;;;10.80;;
79130;SDS011;72396;45.194;9.142;2024-01-30T09:02:58;23.70;;;10.45;;
79130;SDS011;72396;45.194;9.142;2024-01-30T09:05:23;26.40;;;12.15;;
79130;SDS011;72396;45.194;9.142;2024-01-30T09:07:49;27.27;;;11.15;;
79130;SDS011;72396;45.194;9.142;2024-01-30T09:10:14;24.73;;;10.48;;
79130;SDS011;72396;45.194;9.142;2024-01-30T09:12:39;25.33;;;10.77;;
79130;SDS011;72396;45.194;9.142;2024-01-30T09:15:05;25.05;;;10.52;;
79130;SDS011;72396;45.194;9.142;2024-01-30T09:17:30;24.23;;;10.35;;
79130;SDS011;72396;45.194;9.142;2024-01-30T09:19:56;24.83;;;11.05;;
79130;SDS011;72396;45.194;9.142;2024-01-30T09:22:21;23.33;;;11.35;;
79130;SDS011;72396;45.194;9.142;2024-01-30T09:24:46;26.52;;;11.07;;
79130;SDS011;72396;45.194;9.142;2024-01-30T09:27:12;31.98;;;11.80;;
79130;SDS011;72396;45.194;9.142;2024-01-30T09:29:37;28.63;;;10.82;;
79130;SDS011;72396;45.194;9.142;2024-01-30T09:32:03;29.85;;;12.75;;
79130;SDS011;72396;45.194;9.142;2024-01-30T09:34:29;30.58;;;12.45;;
79130;SDS011;72396;45.194;9.142;2024-01-30T09:36:54;31.15;;;13.50;;
79130;SDS011;72396;45.194;9.142;2024-01-30T09:39:20;30.75;;;12.73;;
79130;SDS011;72396;45.194;9.142;2024-01-30T09:41:49;43.38;;;18.70;;
79130;SDS011;72396;45.194;9.142;2024-01-30T09:44:20;33.85;;;16.40;;
79130;SDS011;72396;45.194;9.142;2024-01-30T09:46:46;35.45;;;15.43;;
79130;SDS011;72396;45.194;9.142;2024-01-30T09:49:13;33.75;;;14.57;;
79130;SDS011;72396;45.194;9.142;2024-01-30T09:51:39;36.65;;;14.65;;
79130;SDS011;72396;45.194;9.142;2024-01-30T09:54:05;33.75;;;12.38;;
79130;SDS011;72396;45.194;9.142;2024-01-30T09:56:33;29.75;;;11.90;;
79130;SDS011;72396;45.194;9.142;2024-01-30T09:58:58;35.15;;;13.48;;
79130;SDS011;72396;45.194;9.142;2024-01-30T10:01:24;34.22;;;14.65;;
79130;SDS011;72396;45.194;9.142;2024-01-30T10:03:50;28.92;;;12.70;;
79130;SDS011;72396;45.194;9.142;2024-01-30T10:06:17;31.10;;;13.48;;
79130;SDS011;72396;45.194;9.142;2024-01-30T10:08:43;30.70;;;12.35;;
79130;SDS011;72396;45.194;9.142;2024-01-30T10:11:09;36.35;;;12.90;;
79130;SDS011;72396;45.194;9.142;2024-01-30T10:13:34;34.92;;;13.65;;
79130;SDS011;72396;45.194;9.142;2024-01-30T10:16:00;33.65;;;13.50;;
79130;SDS011;72396;45.194;9.142;2024-01-30T10:18:28;35.95;;;15.43;;
79130;SDS011;72396;45.194;9.142;2024-01-30T10:20:53;35.83;;;13.27;;
79130;SDS011;72396;45.194;9.142;2024-01-30T10:23:19;37.78;;;14.68;;
79130;SDS011;72396;45.194;9.142;2024-01-30T10:25:45;32.03;;;13.95;;
79130;SDS011;72396;45.194;9.142;2024-01-30T10:28:11;30.92;;;12.38;;
79130;SDS011;72396;45.194;9.142;2024-01-30T10:30:36;34.95;;;14.55;;
79130;SDS011;72396;45.194;9.142;2024-01-30T10:33:02;35.67;;;15.27;;
79130;SDS011;72396;45.194;9.142;2024-01-30T10:35:27;34.05;;;15.00;;
79130;SDS011;72396;45.194;9.142;2024-01-30T10:37:52;37.17;;;15.05;;
79130;SDS011;72396;45.194;9.142;2024-01-30T10:40:22;37.50;;;14.38;;
79130;SDS011;72396;45.194;9.142;2024-01-30T10:42:53;37.17;;;15.32;;
79130;SDS011;72396;45.194;9.142;2024-01-30T10:45:20;40.10;;;16.35;;
79130;SDS011;72396;45.194;9.142;2024-01-30T10:47:50;41.42;;;15.25;;
79130;SDS011;72396;45.194;9.142;2024-01-30T10:50:19;37.30;;;15.07;;
79130;SDS011;72396;45.194;9.142;2024-01-30T10:52:45;35.05;;;13.63;;
79130;SDS011;72396;45.194;9.142;2024-01-30T10:55:12;35.78;;;14.88;;
79130;SDS011;72396;45.194;9.142;2024-01-30T10:57:40;33.67;;;13.55;;
79130;SDS011;72396;45.194;9.142;2024-01-30T11:00:10;35.47;;;14.05;;
79130;SDS011;72396;45.194;9.142;2024-01-30T11:02:41;34.78;;;14.57;;
79130;SDS011;72396;45.194;9.142;2024-01-30T11:05:08;37.88;;;14.65;;
79130;SDS011;72396;45.194;9.142;2024-01-30T11:07:34;39.50;;;14.88;;
79130;SDS011;72396;45.194;9.142;2024-01-30T11:10:03;39.42;;;15.73;;
79130;SDS011;72396;45.194;9.142;2024-01-30T11:12:31;40.83;;;16.80;;
79130;SDS011;72396;45.194;9.142;2024-01-30T11:15:03;38.50;;;15.55;;
79130;SDS011;72396;45.194;9.142;2024-01-30T11:17:40;35.75;;;15.20;;
79130;SDS011;72396;45.194;9.142;2024-01-30T11:20:09;34.08;;;15.23;;
79130;SDS011;72396;45.194;9.142;2024-01-30T11:22:41;38.80;;;16.45;;
79130;SDS011;72396;45.194;9.142;2024-01-30T11:25:11;40.00;;;16.60;;
79130;SDS011;72396;45.194;9.142;2024-01-30T11:27:37;38.97;;;15.10;;
79130;SDS011;72396;45.194;9.142;2024-01-30T11:30:03;40.50;;;15.82;;
79130;SDS011;72396;45.194;9.142;2024-01-30T11:32:29;43.38;;;16.08;;
79130;SDS011;72396;45.194;9.142;2024-01-30T11:34:55;38.38;;;15.43;;
79130;SDS011;72396;45.194;9.142;2024-01-30T11:37:20;41.72;;;17.30;;
79130;SDS011;72396;45.194;9.142;2024-01-30T11:39:49;42.58;;;17.38;;
79130;SDS011;72396;45.194;9.142;2024-01-30T11:42:16;41.10;;;16.92;;
79130;SDS011;72396;45.194;9.142;2024-01-30T11:44:45;42.80;;;16.60;;
79130;SDS011;72396;45.194;9.142;2024-01-30T11:47:12;41.25;;;16.90;;
79130;SDS011;72396;45.194;9.142;2024-01-30T11:49:37;43.88;;;16.13;;
79130;SDS011;72396;45.194;9.142;2024-01-30T11:52:03;41.83;;;16.27;;
79130;SDS011;72396;45.194;9.142;2024-01-30T11:54:29;48.65;;;17.33;;
79130;SDS011;72396;45.194;9.142;2024-01-30T11:56:54;45.22;;;17.08;;
79130;SDS011;72396;45.194;9.142;2024-01-30T11:59:20;47.83;;;18.40;;
79130;SDS011;72396;45.194;9.142;2024-01-30T12:01:46;42.50;;;17.17;;
79130;SDS011;72396;45.194;9.142;2024-01-30T12:04:12;43.97;;;17.30;;
79130;SDS011;72396;45.194;9.142;2024-01-30T12:06:37;43.15;;;16.77;;
79130;SDS011;72396;45.194;9.142;2024-01-30T12:09:03;43.42;;;15.38;;
79130;SDS011;72396;45.194;9.142;2024-01-30T12:11:29;42.40;;;15.52;;
79130;SDS011;72396;45.194;9.142;2024-01-30T12:13:55;36.70;;;15.18;;
79130;SDS011;72396;45.194;9.142;2024-01-30T12:16:21;40.85;;;14.70;;
79130;SDS011;72396;45.194;9.142;2024-01-30T12:18:47;46.40;;;16.45;;
79130;SDS011;72396;45.194;9.142;2024-01-30T12:21:12;43.08;;;15.90;;
79130;SDS011;72396;45.194;9.142;2024-01-30T12:23:41;43.65;;;16.30;;
79130;SDS011;72396;45.194;9.142;2024-01-30T12:26:07;41.85;;;16.63;;
79130;SDS011;72396;45.194;9.142;2024-01-30T12:28:33;45.63;;;17.27;;
79130;SDS011;72396;45.194;9.142;2024-01-30T12:31:02;45.45;;;16.80;;
79130;SDS011;72396;45.194;9.142;2024-01-30T12:33:28;39.33;;;15.98;;
79130;SDS011;72396;45.194;9.142;2024-01-30T12:35:55;49.47;;;18.98;;
79130;SDS011;72396;45.194;9.142;2024-01-30T12:38:21;42.88;;;16.48;;
79130;SDS011;72396;45.194;9.142;2024-01-30T12:40:48;45.13;;;19.02;;
79130;SDS011;72396;45.194;9.142;2024-01-30T12:43:14;47.75;;;18.95;;
79130;SDS011;72396;45.194;9.142;2024-01-30T12:45:41;43.72;;;19.02;;
79130;SDS011;72396;45.194;9.142;2024-01-30T12:48:06;44.80;;;17.00;;
79130;SDS011;72396;45.194;9.142;2024-01-30T12:50:32;46.72;;;19.02;;
79130;SDS011;72396;45.194;9.142;2024-01-30T12:53:00;46.72;;;18.60;;
79130;SDS011;72396;45.194;9.142;2024-01-30T12:55:26;48.70;;;17.70;;
79130;SDS011;72396;45.194;9.142;2024-01-30T12:57:56;44.90;;;17.75;;
79130;SDS011;72396;45.194;9.142;2024-01-30T13:00:21;49.92;;;18.10;;
79130;SDS011;72396;45.194;9.142;2024-01-30T13:02:47;40.28;;;17.02;;
79130;SDS011;72396;45.194;9.142;2024-01-30T13:05:13;44.78;;;16.48;;
79130;SDS011;72396;45.194;9.142;2024-01-30T13:07:39;46.67;;;19.67;;
79130;SDS011;72396;45.194;9.142;2024-01-30T13:10:04;45.75;;;16.75;;
79130;SDS011;72396;45.194;9.142;2024-01-30T13:12:31;44.85;;;19.50;;
79130;SDS011;72396;45.194;9.142;2024-01-30T13:15:00;41.63;;;17.52;;
79130;SDS011;72396;45.194;9.142;2024-01-30T13:17:27;53.40;;;19.88;;
79130;SDS011;72396;45.194;9.142;2024-01-30T13:19:52;51.53;;;19.33;;
79130;SDS011;72396;45.194;9.142;2024-01-30T13:22:19;42.08;;;19.25;;
79130;SDS011;72396;45.194;9.142;2024-01-30T13:24:46;48.88;;;20.38;;
79130;SDS011;72396;45.194;9.142;2024-01-30T13:27:12;53.08;;;19.85;;
79130;SDS011;72396;45.194;9.142;2024-01-30T13:29:37;54.67;;;21.85;;
79130;SDS011;72396;45.194;9.142;2024-01-30T13:32:03;51.10;;;20.67;;
79130;SDS011;72396;45.194;9.142;2024-01-30T13:34:28;56.05;;;20.52;;
79130;SDS011;72396;45.194;9.142;2024-01-30T13:36:54;55.13;;;21.05;;
79130;SDS011;72396;45.194;9.142;2024-01-30T13:39:19;55.42;;;20.27;;
79130;SDS011;72396;45.194;9.142;2024-01-30T13:41:44;55.28;;;20.00;;
79130;SDS011;72396;45.194;9.142;2024-01-30T13:44:10;52.17;;;21.42;;
79130;SDS011;72396;45.194;9.142;2024-01-30T13:46:35;54.38;;;18.15;;
79130;SDS011;72396;45.194;9.142;2024-01-30T13:49:04;57.63;;;19.92;;
79130;SDS011;72396;45.194;9.142;2024-01-30T13:51:32;49.60;;;19.65;;
79130;SDS011;72396;45.194;9.142;2024-01-30T13:53:58;57.47;;;21.08;;
79130;SDS011;72396;45.194;9.142;2024-01-30T13:56:23;60.03;;;19.83;;
79130;SDS011;72396;45.194;9.142;2024-01-30T13:58:50;59.20;;;20.13;;
79130;SDS011;72396;45.194;9.142;2024-01-30T14:01:16;59.95;;;22.42;;
79130;SDS011;72396;45.194;9.142;2024-01-30T14:03:45;62.58;;;20.85;;
79130;SDS011;72396;45.194;9.142;2024-01-30T14:06:11;56.70;;;20.70;;
79130;SDS011;72396;45.194;9.142;2024-01-30T14:08:37;61.15;;;22.33;;
79130;SDS011;72396;45.194;9.142;2024-01-30T14:11:02;59.10;;;22.27;;
79130;SDS011;72396;45.194;9.142;2024-01-30T14:13:28;56.80;;;24.50;;
79130;SDS011;72396;45.194;9.142;2024-01-30T14:15:55;55.97;;;21.88;;
79130;SDS011;72396;45.194;9.142;2024-01-30T14:18:21;59.40;;;20.92;;